Time;durP1;ratioP1;P1;durP2;ratioP2;P2;SDS_P1;SDS_P2;PMS_P1;PMS_P2;Temp;Humidity;BMP_temperature;BMP_pressure;BME280_temperature;BME280_humidity;BME280_pressure;Samples;Min_cycle;Max_cycle;Signal;HPM_P1;HPM_P2
2022/09/09 00:01:40;;;;;;;4.23;1.37;;;;;;;15.14;100.00;100681.94;5271750;28;20020;-86
2022/09/09 00:04:17;;;;;;;3.40;1.10;;;;;;;15.00;100.00;100681.28;5271658;28;20564;-86
2022/09/09 00:07:02;;;;;;;3.60;1.33;;;;;;;15.13;100.00;100675.03;5270746;28;20033;-86
2022/09/09 00:09:45;;;;;;;8.40;1.93;;;;;;;15.08;100.00;100671.94;5269683;28;21126;-87
2022/09/09 00:12:27;;;;;;;2.97;1.00;;;;;;;15.19;100.00;100673.66;5257055;28;20128;-88
2022/09/09 00:15:01;;;;;;;4.53;1.20;;;;;;;15.06;100.00;100676.47;5253468;28;20064;-90
2022/09/09 00:17:42;;;;;;;3.10;1.10;;;;;;;14.97;100.00;100665.72;5251976;28;20017;-87
2022/09/09 00:20:23;;;;;;;4.07;1.03;;;;;;;14.99;100.00;100669.06;5250591;28;20094;-86
2022/09/09 00:23:11;;;;;;;3.90;1.03;;;;;;;15.05;100.00;100669.50;5251151;28;20029;-87
2022/09/09 00:26:03;;;;;;;6.63;1.43;;;;;;;15.11;100.00;100663.75;5250707;28;20036;-88
2022/09/09 00:28:48;;;;;;;4.13;1.23;;;;;;;14.91;100.00;100666.22;5251323;28;20596;-89
2022/09/09 00:31:26;;;;;;;4.22;1.15;;;;;;;14.71;100.00;100670.44;5250965;28;20033;-87
2022/09/09 00:34:12;;;;;;;3.40;1.53;;;;;;;14.79;100.00;100672.44;5268664;28;20024;-87
2022/09/09 00:36:48;;;;;;;4.07;1.23;;;;;;;14.70;100.00;100664.31;5271368;28;20149;-88
2022/09/09 00:39:34;;;;;;;2.53;1.13;;;;;;;14.72;100.00;100646.59;5157316;22;20049;-81
2022/09/09 00:42:26;;;;;;;4.83;1.30;;;;;;;14.87;100.00;100659.53;5248520;28;20039;-89
2022/09/09 00:45:08;;;;;;;6.27;1.40;;;;;;;14.82;100.00;100646.69;5251831;28;20025;-83
2022/09/09 00:47:47;;;;;;;4.00;1.20;;;;;;;15.00;100.00;100649.66;5257875;28;20033;-90
2022/09/09 00:50:40;;;;;;;4.13;1.37;;;;;;;14.86;100.00;100647.28;5257375;28;20021;-85
2022/09/09 00:53:33;;;;;;;4.13;1.07;;;;;;;14.98;100.00;100645.44;5258260;28;20087;-83
2022/09/09 00:56:35;;;;;;;2.30;0.90;;;;;;;14.91;100.00;100639.84;5256394;28;20118;-81
2022/09/09 00:59:28;;;;;;;2.90;1.10;;;;;;;14.68;100.00;100639.88;5256379;28;20084;-92
2022/09/09 01:02:01;;;;;;;2.17;1.00;;;;;;;14.87;100.00;100643.72;5259614;28;20459;-92
2022/09/09 01:04:36;;;;;;;3.47;0.97;;;;;;;14.90;100.00;100643.44;5259689;28;20024;-90
2022/09/09 01:07:17;;;;;;;2.70;1.03;;;;;;;14.74;100.00;100622.75;5259219;28;20025;-92
2022/09/09 01:09:55;;;;;;;15.00;1.60;;;;;;;14.82;100.00;100644.06;5258539;28;20032;-86
2022/09/09 01:12:36;;;;;;;2.47;0.90;;;;;;;14.79;100.00;100638.16;5258705;28;20036;-89
2022/09/09 01:15:12;;;;;;;3.60;1.10;;;;;;;14.66;100.00;100630.44;5258790;28;20021;-73
2022/09/09 01:17:53;;;;;;;4.57;1.13;;;;;;;14.82;100.00;100635.34;5258279;28;20025;-75
2022/09/09 01:20:41;;;;;;;2.57;1.00;;;;;;;14.82;100.00;100632.72;5258768;28;20029;-76
2022/09/09 01:23:34;;;;;;;2.00;1.10;;;;;;;14.74;100.00;100634.13;5258821;28;20041;-92
2022/09/09 01:26:18;;;;;;;4.37;1.30;;;;;;;14.79;100.00;100632.91;5258037;28;20021;-83
2022/09/09 01:28:54;;;;;;;3.33;1.50;;;;;;;14.62;100.00;100628.06;5257108;28;20025;-83
2022/09/09 01:31:37;;;;;;;6.93;1.53;;;;;;;14.76;100.00;100626.94;5257628;28;20508;-90
2022/09/09 01:34:11;;;;;;;6.17;1.40;;;;;;;14.41;100.00;100617.44;5258126;28;20403;-89
2022/09/09 01:36:54;;;;;;;6.22;1.38;;;;;;;14.59;100.00;100625.66;5257154;28;20035;-90
2022/09/09 01:39:26;;;;;;;3.90;1.60;;;;;;;14.64;100.00;100628.75;5256304;28;20045;-87
2022/09/09 01:41:57;;;;;;;6.10;1.40;;;;;;;14.66;100.00;100614.63;5257425;28;20636;-80
2022/09/09 01:44:30;;;;;;;3.80;1.70;;;;;;;14.75;100.00;100617.34;5257015;28;20033;-89
2022/09/09 01:47:02;;;;;;;4.33;1.30;;;;;;;14.38;100.00;100612.41;5256883;28;20035;-79
2022/09/09 01:49:33;;;;;;;7.30;1.83;;;;;;;14.75;100.00;100611.22;5255724;28;20052;-90
2022/09/09 01:52:05;;;;;;;4.57;1.90;;;;;;;14.74;100.00;100607.78;5257330;28;20100;-90
2022/09/09 01:54:37;;;;;;;5.63;2.00;;;;;;;14.45;100.00;100613.56;5255240;28;20029;-87
2022/09/09 01:57:19;;;;;;;5.17;1.37;;;;;;;14.74;100.00;100617.47;5260836;28;20039;-90
2022/09/09 02:00:09;;;;;;;8.57;1.97;;;;;;;14.52;100.00;100603.41;5258064;28;20039;-89
2022/09/09 02:03:03;;;;;;;4.07;1.70;;;;;;;14.40;100.00;100610.47;5258886;28;20060;-91
2022/09/09 02:05:41;;;;;;;11.43;1.80;;;;;;;14.37;100.00;100601.03;5259190;28;20025;-91
2022/09/09 02:08:37;;;;;;;8.37;1.90;;;;;;;14.31;100.00;100600.69;5256949;28;20052;-92
2022/09/09 02:11:15;;;;;;;4.47;1.80;;;;;;;14.14;100.00;100595.81;5247339;28;20647;-89
2022/09/09 02:13:48;;;;;;;8.63;1.80;;;;;;;14.35;100.00;100597.69;5257661;28;20375;-91
2022/09/09 02:16:42;;;;;;;5.20;1.98;;;;;;;14.35;100.00;100594.19;5257708;28;20021;-87
2022/09/09 02:19:31;;;;;;;6.80;1.70;;;;;;;14.43;100.00;100602.34;5257638;28;20033;-90
2022/09/09 02:22:04;;;;;;;6.23;1.93;;;;;;;14.44;100.00;100608.44;5256543;28;20037;-89
2022/09/09 02:24:38;;;;;;;6.30;1.80;;;;;;;14.43;100.00;100599.72;5255810;28;20124;-92
2022/09/09 02:27:10;;;;;;;;;;;;;;;14.61;100.00;100602.66;5257012;28;20506;-91
2022/09/09 02:29:44;;;;;;;4.67;1.50;;;;;;;14.43;100.00;100586.53;5257322;28;20290;-94
2022/09/09 02:32:22;;;;;;;5.43;2.00;;;;;;;14.43;100.00;100594.44;5258012;28;20059;-88
2022/09/09 02:34:59;;;;;;;3.53;2.17;;;;;;;14.30;100.00;100594.56;5257884;28;20029;-83
2022/09/09 02:37:37;;;;;;;5.10;1.90;;;;;;;14.33;100.00;100582.97;5259050;28;20484;-87
2022/09/09 02:40:11;;;;;;;6.13;1.87;;;;;;;14.25;100.00;100583.56;5251631;28;20602;-90
2022/09/09 02:42:45;;;;;;;5.05;2.15;;;;;;;14.31;100.00;100590.16;5239520;28;20033;-79
2022/09/09 02:45:19;;;;;;;11.20;2.33;;;;;;;14.37;100.00;100585.22;5243789;28;20053;-79
2022/09/09 02:48:02;;;;;;;5.50;2.03;;;;;;;14.42;100.00;100584.03;5260493;28;20041;-90
2022/09/09 02:50:59;;;;;;;8.13;1.97;;;;;;;14.29;100.00;100587.66;5260364;28;20036;-90
2022/09/09 02:53:43;;;;;;;6.10;2.10;;;;;;;14.23;100.00;100590.75;5251944;28;20060;-85
2022/09/09 02:56:19;;;;;;;3.43;1.57;;;;;;;14.10;100.00;100586.47;5260897;28;20032;-92
2022/09/09 02:58:51;;;;;;;4.60;1.40;;;;;;;14.07;100.00;100591.16;5260408;28;20029;-90
2022/09/09 03:01:22;;;;;;;6.33;1.90;;;;;;;14.12;100.00;100602.16;5260623;28;20123;-90
2022/09/09 03:03:54;;;;;;;3.67;1.80;;;;;;;14.28;100.00;100596.50;5263218;28;20119;-75
2022/09/09 03:06:27;;;;;;;5.63;2.00;;;;;;;14.04;100.00;100594.84;5261859;28;20032;-90
2022/09/09 03:09:00;;;;;;;3.20;1.40;;;;;;;14.20;100.00;100594.50;5259421;28;20028;-81
2022/09/09 03:11:32;;;;;;;8.60;1.97;;;;;;;14.28;100.00;100592.06;5260347;28;20021;-92
2022/09/09 03:14:03;;;;;;;7.13;1.70;;;;;;;14.32;100.00;100591.81;5260875;28;20029;-89
2022/09/09 03:16:34;;;;;;;5.77;1.77;;;;;;;14.08;100.00;100601.56;5260052;28;20021;-91
2022/09/09 03:19:06;;;;;;;3.90;1.37;;;;;;;14.34;100.00;100608.34;5260023;28;20108;-91
2022/09/09 03:21:38;;;;;;;6.27;2.13;;;;;;;14.03;100.00;100601.91;5259776;28;20032;-89
2022/09/09 03:24:09;;;;;;;6.37;1.87;;;;;;;14.01;100.00;100611.75;5259436;28;20074;-92
2022/09/09 03:26:44;;;;;;;5.67;2.23;;;;;;;14.00;100.00;100615.31;5259933;28;20048;-88
2022/09/09 03:29:17;;;;;;;6.77;1.80;;;;;;;14.18;100.00;100609.56;5260203;28;20024;-82
2022/09/09 03:31:48;;;;;;;5.40;2.07;;;;;;;14.27;100.00;100608.84;5263654;28;20075;-91
2022/09/09 03:34:19;;;;;;;6.03;1.80;;;;;;;14.25;100.00;100607.28;5259471;28;20072;-86
2022/09/09 03:36:50;;;;;;;5.40;2.23;;;;;;;14.17;100.00;100605.28;5259741;28;20476;-84
2022/09/09 03:39:22;;;;;;;7.03;2.33;;;;;;;14.01;100.00;100605.63;5256466;28;20041;-92
2022/09/09 03:41:53;;;;;;;6.03;1.80;;;;;;;14.20;100.00;100605.03;5259275;28;20029;-90
2022/09/09 03:44:25;;;;;;;6.90;2.00;;;;;;;14.23;100.00;100601.28;5259090;28;20100;-91
2022/09/09 03:46:56;;;;;;;8.40;2.10;;;;;;;14.22;100.00;100589.94;5244272;28;20095;-80
2022/09/09 03:49:30;;;;;;;9.63;2.07;;;;;;;14.14;100.00;100601.06;5238732;28;20308;-90
2022/09/09 03:52:02;;;;;;;5.20;1.77;;;;;;;14.19;100.00;100592.78;5254829;28;20088;-93
2022/09/09 03:54:33;;;;;;;5.60;2.37;;;;;;;14.22;100.00;100602.25;5258544;28;20131;-89
2022/09/09 03:57:05;;;;;;;9.87;2.37;;;;;;;13.91;100.00;100595.00;5242376;28;20026;-85
2022/09/09 03:59:36;;;;;;;10.90;1.97;;;;;;;14.09;100.00;100603.22;5238154;28;20029;-89
2022/09/09 04:02:08;;;;;;;7.23;2.37;;;;;;;14.07;100.00;100596.41;5236985;28;20160;-91
2022/09/09 04:04:39;;;;;;;8.67;2.10;;;;;;;14.08;100.00;100598.09;5238184;28;20056;-84
2022/09/09 04:07:11;;;;;;;6.67;1.90;;;;;;;14.10;100.00;100593.53;5239571;28;20029;-86
2022/09/09 04:09:43;;;;;;;7.17;2.70;;;;;;;-150.27;100.00;61272.81;5237528;28;20025;-91
2022/09/09 04:12:14;;;;;;;7.33;1.70;;;;;;;-150.27;100.00;61272.81;5237853;28;20060;-75
2022/09/09 04:14:45;;;;;;;6.73;2.10;;;;;;;-150.27;100.00;61272.81;5237446;28;20033;-88
2022/09/09 04:17:17;;;;;;;7.10;2.10;;;;;;;-150.27;100.00;61272.81;5237317;28;20078;-90
2022/09/09 04:19:48;;;;;;;8.13;2.10;;;;;;;-150.27;100.00;61272.81;5237721;28;20460;-73
2022/09/09 04:22:19;;;;;;;7.77;2.20;;;;;;;-150.27;100.00;61272.81;5237090;28;20033;-77
2022/09/09 04:24:50;;;;;;;11.50;2.77;;;;;;;-150.27;100.00;61272.81;5235326;28;20403;-84
2022/09/09 04:27:22;;;;;;;6.50;2.53;;;;;;;-150.27;100.00;61272.81;5237296;28;20053;-87
2022/09/09 04:29:53;;;;;;;8.07;2.00;;;;;;;-150.27;100.00;61272.81;5237070;28;20368;-84
2022/09/09 04:32:26;;;;;;;5.00;2.23;;;;;;;-150.27;100.00;61272.81;5237034;28;20498;-87
2022/09/09 04:34:58;;;;;;;5.65;1.98;;;;;;;-150.27;100.00;61272.81;5237189;28;20032;-87
2022/09/09 04:37:30;;;;;;;11.50;2.70;;;;;;;-150.27;100.00;61272.81;5236986;28;20340;-87
2022/09/09 04:40:02;;;;;;;6.00;2.87;;;;;;;-150.27;100.00;61272.81;5236391;28;20534;-86
2022/09/09 04:42:37;;;;;;;10.47;2.53;;;;;;;-150.27;100.00;61272.81;5236839;28;20392;-88
2022/09/09 04:45:11;;;;;;;;;;;;;;;-150.27;100.00;61272.81;5237471;28;20090;-72
2022/09/09 04:47:42;;;;;;;7.33;2.27;;;;;;;-150.27;100.00;61272.81;5236355;28;19920;-75
2022/09/09 04:50:13;;;;;;;4.63;1.80;;;;;;;-150.27;100.00;61272.81;5237082;28;20033;-85
2022/09/09 04:52:44;;;;;;;7.23;2.10;;;;;;;-150.27;100.00;61272.81;5236374;28;20086;-87
2022/09/09 04:55:16;;;;;;;6.47;2.23;;;;;;;-150.27;100.00;61272.81;5235840;28;20029;-87
2022/09/09 04:57:48;;;;;;;7.70;2.37;;;;;;;-150.27;100.00;61272.81;5236678;28;20033;-87
2022/09/09 05:00:19;;;;;;;7.20;2.27;;;;;;;-150.27;100.00;61272.81;5235923;28;20472;-78
2022/09/09 05:02:51;;;;;;;7.00;2.00;;;;;;;-150.27;100.00;61272.81;5236454;28;20029;-85
2022/09/09 05:05:23;;;;;;;7.93;2.03;;;;;;;-150.27;100.00;61272.81;5236441;28;20025;-88
2022/09/09 05:07:54;;;;;;;9.17;2.30;;;;;;;-150.27;100.00;61272.81;5237013;28;20112;-84
2022/09/09 05:10:26;;;;;;;7.27;1.90;;;;;;;-150.27;100.00;61272.81;5238104;28;20025;-91
2022/09/09 05:12:57;;;;;;;8.63;2.17;;;;;;;-150.27;100.00;61272.81;5257452;28;20040;-92
2022/09/09 05:15:28;;;;;;;7.50;2.13;;;;;;;-150.27;100.00;61272.81;5253679;28;20096;-76
2022/09/09 05:18:01;;;;;;;8.47;2.30;;;;;;;-150.27;100.00;61272.81;5240161;28;20033;-89
2022/09/09 05:20:32;;;;;;;9.03;2.77;;;;;;;-150.27;100.00;61272.81;5239614;28;20118;-94
2022/09/09 05:23:03;;;;;;;8.83;2.53;;;;;;;-150.27;100.00;61272.81;5238398;28;20087;-72
2022/09/09 05:25:35;;;;;;;12.53;2.30;;;;;;;-150.27;100.00;61272.81;5239224;28;20022;-91
2022/09/09 05:28:07;;;;;;;8.90;3.07;;;;;;;-150.27;100.00;61272.81;5253565;28;20032;-91
2022/09/09 05:30:39;;;;;;;7.93;2.27;;;;;;;-150.27;100.00;61272.81;5260000;28;20044;-85
2022/09/09 05:33:10;;;;;;;12.60;3.03;;;;;;;-150.27;100.00;61272.81;5259997;28;20175;-89
2022/09/09 05:35:41;;;;;;;7.20;2.57;;;;;;;-150.27;100.00;61272.81;5260501;28;20086;-91
2022/09/09 05:38:13;;;;;;;9.93;2.73;;;;;;;-150.27;100.00;61272.81;5259287;28;20028;-91
2022/09/09 05:40:49;;;;;;;6.17;2.00;;;;;;;-150.27;100.00;61272.81;5261549;28;20052;-88
2022/09/09 05:43:20;;;;;;;7.20;2.70;;;;;;;-150.27;100.00;61272.81;5259772;28;20024;-90
2022/09/09 05:46:05;;;;;;;10.73;3.07;;;;;;;-150.27;100.00;61272.81;5261184;28;20028;-79
2022/09/09 05:48:39;;;;;;;12.57;2.23;;;;;;;-150.27;100.00;61272.81;5259211;28;20152;-75
2022/09/09 05:51:12;;;;;;;9.70;2.80;;;;;;;-150.27;100.00;61272.81;5259636;28;20558;-87
2022/09/09 05:53:45;;;;;;;8.07;2.45;;;;;;;-150.27;100.00;61272.81;5259784;28;20051;-92
2022/09/09 05:56:22;;;;;;;17.50;2.50;;;;;;;-150.27;100.00;61272.81;5253970;28;20032;-90
2022/09/09 05:58:54;;;;;;;12.20;3.37;;;;;;;-150.27;100.00;61272.81;5249118;28;20480;-84
2022/09/09 06:01:32;;;;;;;9.40;2.13;;;;;;;-150.27;100.00;61272.81;5247299;28;20027;-74
2022/09/09 06:04:03;;;;;;;8.63;2.73;;;;;;;-150.27;100.00;61272.81;5242450;28;20146;-72
2022/09/09 06:06:36;;;;;;;14.53;2.77;;;;;;;-150.27;100.00;61272.81;5245241;28;20041;-75
2022/09/09 06:09:10;;;;;;;8.73;2.53;;;;;;;-150.27;100.00;61272.81;5248414;28;20052;-75
2022/09/09 06:11:41;;;;;;;5.97;2.07;;;;;;;-150.27;100.00;61272.81;5246312;28;20021;-73
2022/09/09 06:14:13;;;;;;;4.80;1.70;;;;;;;-150.27;100.00;61272.81;5249929;28;20037;-72
2022/09/09 06:16:44;;;;;;;14.63;2.97;;;;;;;-150.27;100.00;61272.81;5246287;28;20065;-72
2022/09/09 06:19:15;;;;;;;9.17;2.67;;;;;;;-150.27;100.00;61272.81;5252118;28;20040;-74
2022/09/09 06:21:47;;;;;;;9.50;2.47;;;;;;;-150.27;100.00;61272.81;5251263;28;20048;-74
2022/09/09 06:24:19;;;;;;;9.60;2.27;;;;;;;-150.27;100.00;61272.81;5251751;28;20039;-73
2022/09/09 06:26:51;;;;;;;8.47;2.30;;;;;;;-150.27;100.00;61272.81;5247187;28;20065;-73
2022/09/09 06:29:22;;;;;;;13.07;3.70;;;;;;;-150.27;100.00;61272.81;5248494;28;20052;-75
2022/09/09 06:31:53;;;;;;;10.67;2.70;;;;;;;-150.27;100.00;61272.81;5249190;28;20037;-75
2022/09/09 06:34:24;;;;;;;15.70;3.30;;;;;;;-150.27;100.00;61272.81;5247281;28;20079;-77
2022/09/09 06:36:57;;;;;;;8.83;2.67;;;;;;;-150.27;100.00;61272.81;5249413;28;20034;-74
2022/09/09 06:39:28;;;;;;;7.40;2.60;;;;;;;-150.27;100.00;61272.81;5244348;28;20069;-75
2022/09/09 06:42:00;;;;;;;8.63;3.00;;;;;;;-150.27;100.00;61272.81;5255149;28;20617;-82
2022/09/09 06:44:31;;;;;;;12.23;3.00;;;;;;;-150.27;100.00;61272.81;5246368;28;20041;-86
2022/09/09 06:47:03;;;;;;;10.00;2.50;;;;;;;-150.27;100.00;61272.81;5249998;28;20503;-86
2022/09/09 06:49:34;;;;;;;13.00;4.47;;;;;;;-150.27;100.00;61272.81;5246923;28;20099;-85
2022/09/09 06:52:06;;;;;;;10.03;2.30;;;;;;;-150.27;100.00;61272.81;5247538;28;20038;-83
2022/09/09 06:54:37;;;;;;;7.80;2.97;;;;;;;-150.27;100.00;61272.81;5249814;28;20037;-85
2022/09/09 06:57:08;;;;;;;10.87;3.47;;;;;;;-150.27;100.00;61272.81;5258963;28;20036;-85
2022/09/09 06:59:40;;;;;;;13.93;3.10;;;;;;;-150.27;100.00;61272.81;5259362;28;20112;-84
2022/09/09 07:02:11;;;;;;;7.40;2.53;;;;;;;-150.27;100.00;61272.81;5259357;28;20087;-83
2022/09/09 07:04:43;;;;;;;10.03;2.67;;;;;;;-150.27;100.00;61272.81;5258251;28;20029;-85
2022/09/09 07:07:15;;;;;;;18.97;4.73;;;;;;;-150.27;100.00;61272.81;5259133;28;20494;-84
2022/09/09 07:09:46;;;;;;;14.93;3.40;;;;;;;-150.27;100.00;61272.81;5257803;28;20032;-77
2022/09/09 07:12:17;;;;;;;9.43;2.43;;;;;;;-150.27;100.00;61272.81;5257890;28;20025;-83
2022/09/09 07:14:49;;;;;;;8.53;2.07;;;;;;;-150.27;100.00;61272.81;5258705;28;20033;-76
2022/09/09 07:17:20;;;;;;;8.63;2.40;;;;;;;-150.27;100.00;61272.81;5257353;28;20033;-84
2022/09/09 07:19:52;;;;;;;11.93;2.30;;;;;;;-150.27;100.00;61272.81;5257816;28;20040;-82
2022/09/09 07:22:23;;;;;;;10.00;3.03;;;;;;;-150.27;100.00;61272.81;5258055;28;20075;-85
2022/09/09 07:24:54;;;;;;;14.67;2.70;;;;;;;-150.27;100.00;61272.81;5236962;28;20029;-87
2022/09/09 07:27:26;;;;;;;17.47;2.83;;;;;;;-150.27;100.00;61272.81;5237867;28;20029;-88
2022/09/09 07:29:57;;;;;;;9.63;3.00;;;;;;;-150.27;100.00;61272.81;5238387;28;20025;-86
2022/09/09 07:32:30;;;;;;;9.13;2.70;;;;;;;-150.27;100.00;61272.81;5236808;28;20404;-86
2022/09/09 07:35:01;;;;;;;9.17;2.83;;;;;;;-150.27;100.00;61272.81;5237856;28;20021;-84
2022/09/09 07:37:32;;;;;;;12.43;3.30;;;;;;;-150.27;100.00;61272.81;5236585;28;20035;-88
2022/09/09 07:40:05;;;;;;;11.00;3.17;;;;;;;-150.27;100.00;61272.81;5236594;28;20068;-88
2022/09/09 07:42:37;;;;;;;9.57;2.97;;;;;;;-150.27;100.00;61272.81;5237978;28;20073;-84
2022/09/09 07:45:08;;;;;;;16.93;2.67;;;;;;;-150.27;100.00;61272.81;5237643;28;20054;-83
2022/09/09 07:47:42;;;;;;;8.27;2.13;;;;;;;-150.27;100.00;61272.81;5236422;28;20028;-86
2022/09/09 07:50:13;;;;;;;13.70;2.30;;;;;;;-150.27;100.00;61272.81;5254553;28;20027;-83
2022/09/09 07:52:44;;;;;;;11.90;2.90;;;;;;;-150.27;100.00;61272.81;5257175;28;20029;-88
2022/09/09 07:55:16;;;;;;;8.13;2.70;;;;;;;-150.27;100.00;61272.81;5258504;28;20029;-81
2022/09/09 07:57:47;;;;;;;8.33;2.40;;;;;;;-150.27;100.00;61272.81;5257972;28;20029;-78
2022/09/09 08:00:19;;;;;;;11.47;2.83;;;;;;;-150.27;100.00;61272.81;5256807;28;20514;-85
2022/09/09 08:02:50;;;;;;;14.30;2.97;;;;;;;-150.27;100.00;61272.81;5258033;28;20053;-88
2022/09/09 08:05:22;;;;;;;9.57;3.03;;;;;;;-150.27;100.00;61272.81;5260273;28;20055;-80
2022/09/09 08:07:53;;;;;;;12.80;2.80;;;;;;;-150.27;100.00;61272.81;5256653;28;20416;-87
2022/09/09 08:10:25;;;;;;;10.20;2.13;;;;;;;-150.27;100.00;61272.81;5236975;28;20033;-88
2022/09/09 08:12:56;;;;;;;8.47;2.10;;;;;;;-150.27;100.00;61272.81;5237057;28;20036;-77
2022/09/09 08:15:28;;;;;;;8.87;2.93;;;;;;;-150.27;100.00;61272.81;5236797;28;20030;-85
2022/09/09 08:17:59;;;;;;;9.07;2.30;;;;;;;-150.27;100.00;61272.81;5237869;28;20040;-85
2022/09/09 08:20:31;;;;;;;8.00;2.07;;;;;;;-150.27;100.00;61272.81;5237239;28;20112;-88
2022/09/09 08:23:02;;;;;;;9.67;1.87;;;;;;;-150.27;100.00;61272.81;5235803;28;20025;-87
2022/09/09 08:25:34;;;;;;;9.70;2.47;;;;;;;-150.27;100.00;61272.81;5236178;28;20034;-85
2022/09/09 08:28:05;;;;;;;7.57;1.97;;;;;;;-150.27;100.00;61272.81;5236383;28;20029;-84
2022/09/09 08:30:37;;;;;;;9.60;2.00;;;;;;;-150.27;100.00;61272.81;5234776;28;20037;-84
2022/09/09 08:33:09;;;;;;;9.97;2.20;;;;;;;-150.27;100.00;61272.81;5237536;28;20047;-87
2022/09/09 08:35:49;;;;;;;8.83;2.67;;;;;;;-150.27;100.00;61272.81;5234544;28;20132;-79
2022/09/09 08:38:21;;;;;;;10.47;2.60;;;;;;;-150.27;100.00;61272.81;5235687;28;20468;-85
2022/09/09 08:41:03;;;;;;;8.60;1.90;;;;;;;-150.27;100.00;61272.81;5236698;28;20041;-86
2022/09/09 08:43:35;;;;;;;9.43;2.33;;;;;;;-150.27;100.00;61272.81;5236510;28;20524;-84
2022/09/09 08:46:30;;;;;;;13.57;2.60;;;;;;;-150.27;100.00;61272.81;5238709;28;20159;-86
2022/09/09 08:49:05;;;;;;;;;;;;;;;-150.27;100.00;61272.81;5243006;28;20467;-75
2022/09/09 08:51:37;;;;;;;7.17;2.10;;;;;;;-150.27;100.00;61272.81;5226969;28;20431;-86
2022/09/09 08:54:09;;;;;;;10.10;2.33;;;;;;;-150.27;100.00;61272.81;5235464;28;20116;-75
2022/09/09 08:56:41;;;;;;;12.37;2.33;;;;;;;-150.27;100.00;61272.81;5244514;28;20021;-82
2022/09/09 08:59:16;;;;;;;7.87;2.10;;;;;;;-150.27;100.00;61272.81;5258006;28;20016;-87
2022/09/09 09:02:22;;;;;;;9.20;1.93;;;;;;;-150.27;100.00;61272.81;5257068;28;20104;-88
2022/09/09 09:05:13;;;;;;;8.38;2.78;;;;;;;-150.27;100.00;61272.81;5251102;28;20439;-79
2022/09/09 09:08:06;;;;;;;9.20;2.30;;;;;;;-150.27;100.00;61272.81;5255739;28;20035;-86
2022/09/09 09:10:47;;;;;;;9.07;1.97;;;;;;;-150.27;100.00;61272.81;5256935;28;20626;-83
2022/09/09 09:13:34;;;;;;;8.83;2.27;;;;;;;-150.27;100.00;61272.81;5255517;28;20371;-75
2022/09/09 09:16:22;;;;;;;13.60;3.03;;;;;;;-150.27;100.00;61272.81;5256701;28;20079;-75
2022/09/09 09:18:54;;;;;;;7.53;2.10;;;;;;;-150.27;100.00;61272.81;5240462;28;20037;-86
2022/09/09 09:21:36;;;;;;;10.70;3.33;;;;;;;-150.27;100.00;61272.81;5235650;28;20075;-85
2022/09/09 09:24:17;;;;;;;13.90;3.23;;;;;;;-150.27;100.00;61272.81;5235543;28;20084;-74
2022/09/09 09:26:49;;;;;;;8.17;2.07;;;;;;;-150.27;100.00;61272.81;5235796;28;20415;-86
2022/09/09 09:29:21;;;;;;;10.77;2.33;;;;;;;-150.27;100.00;61272.81;5235653;28;20036;-79
2022/09/09 09:31:56;;;;;;;9.67;3.00;;;;;;;-150.27;100.00;61272.81;5233833;28;20033;-87
2022/09/09 09:34:28;;;;;;;6.37;1.70;;;;;;;-150.27;100.00;61272.81;5233322;28;20084;-86
2022/09/09 09:37:04;;;;;;;11.70;2.67;;;;;;;-150.27;100.00;61272.81;5233609;28;20122;-84
2022/09/09 09:39:38;;;;;;;8.70;1.77;;;;;;;-150.27;100.00;61272.81;5234096;28;20049;-85
2022/09/09 09:42:14;;;;;;;10.38;2.58;;;;;;;-150.27;100.00;61272.81;5235905;28;20056;-79
2022/09/09 09:44:45;;;;;;;13.27;2.30;;;;;;;-150.27;100.00;61272.81;5236692;28;20033;-87
2022/09/09 09:47:19;;;;;;;11.43;2.67;;;;;;;-150.27;100.00;61272.81;5244077;28;20029;-85
2022/09/09 09:49:56;;;;;;;11.35;2.78;;;;;;;-150.27;100.00;61272.81;5240370;28;20108;-82
2022/09/09 09:52:32;;;;;;;10.80;3.70;;;;;;;-150.27;100.00;61272.81;5238546;28;20472;-87
2022/09/09 09:55:12;;;;;;;8.90;2.10;;;;;;;-150.27;100.00;61272.81;5240307;28;20468;-84
2022/09/09 09:57:44;;;;;;;8.37;2.60;;;;;;;-150.27;100.00;61272.81;5239882;28;20116;-76
2022/09/09 10:00:22;;;;;;;12.67;2.20;;;;;;;-150.27;100.00;61272.81;5240973;28;20037;-89
2022/09/09 10:02:54;;;;;;;9.87;2.13;;;;;;;-150.27;100.00;61272.81;5240046;28;20025;-85
2022/09/09 10:05:30;;;;;;;14.53;3.33;;;;;;;-150.27;100.00;61272.81;5239706;28;20582;-87
2022/09/09 10:08:05;;;;;;;11.77;2.00;;;;;;;-150.27;100.00;61272.81;5239214;28;20033;-79
2022/09/09 10:10:59;;;;;;;14.27;2.47;;;;;;;-150.27;100.00;61272.81;5239542;28;20185;-88
2022/09/09 10:13:47;;;;;;;9.07;2.27;;;;;;;-150.27;100.00;61272.81;5238526;28;20500;-84
2022/09/09 10:16:41;;;;;;;12.97;2.33;;;;;;;-150.27;100.00;61272.81;5239455;28;20025;-77
2022/09/09 10:19:17;;;;;;;6.78;1.95;;;;;;;-150.27;100.00;61272.81;5242166;28;20059;-76
2022/09/09 10:21:57;;;;;;;6.13;1.70;;;;;;;-150.27;100.00;61272.81;5248786;28;20031;-85
2022/09/09 10:24:48;;;;;;;9.20;2.40;;;;;;;-150.27;100.00;61272.81;5238275;28;20420;-79
2022/09/09 10:27:35;;;;;;;9.53;2.80;;;;;;;-150.27;100.00;61272.81;5249960;28;20056;-81
2022/09/09 10:30:16;;;;;;;12.50;2.60;;;;;;;-150.27;100.00;61272.81;5243535;28;20456;-79
2022/09/09 10:32:52;;;;;;;9.37;2.37;;;;;;;-150.27;100.00;61272.81;5253170;28;20098;-84
2022/09/09 10:35:38;;;;;;;7.13;2.30;;;;;;;-150.27;100.00;61272.81;5239181;28;20036;-80
2022/09/09 10:38:14;;;;;;;10.23;2.53;;;;;;;-150.27;100.00;61272.81;5238239;28;20025;-81
2022/09/09 10:40:58;;;;;;;10.20;2.53;;;;;;;-150.27;100.00;61272.81;5244193;28;20059;-79
2022/09/09 10:43:35;;;;;;;6.90;2.43;;;;;;;-150.27;100.00;61272.81;5247827;28;20025;-86
2022/09/09 10:46:43;;;;;;;8.23;2.00;;;;;;;-150.27;100.00;61272.81;5249590;28;20110;-83
2022/09/09 10:49:33;;;;;;;7.53;2.07;;;;;;;-150.27;100.00;61272.81;5257884;28;20467;-77
2022/09/09 10:52:24;;;;;;;6.87;1.80;;;;;;;-150.27;100.00;61272.81;5252718;28;20029;-82
2022/09/09 10:55:22;;;;;;;10.33;2.10;;;;;;;-150.27;100.00;61272.81;5247555;28;20024;-83
2022/09/09 10:57:58;;;;;;;6.93;2.23;;;;;;;-150.27;100.00;61272.81;5242201;28;20508;-82
2022/09/09 11:00:50;;;;;;;8.10;1.80;;;;;;;-150.27;100.00;61272.81;5254582;28;20021;-77
2022/09/09 11:03:33;;;;;;;7.00;1.83;;;;;;;-150.27;100.00;61272.81;5240830;28;20107;-78
2022/09/09 11:06:09;;;;;;;9.87;2.40;;;;;;;-150.27;100.00;61272.81;5248807;28;20479;-85
2022/09/09 11:08:42;;;;;;;6.07;1.40;;;;;;;-150.27;100.00;61272.81;5240367;28;20036;-82
2022/09/09 11:11:27;;;;;;;7.67;2.40;;;;;;;-150.27;100.00;61272.81;5246531;28;20065;-84
2022/09/09 11:14:08;;;;;;;10.43;2.77;;;;;;;-150.27;100.00;61272.81;5236933;28;20041;-85
2022/09/09 11:16:51;;;;;;;7.73;2.27;;;;;;;-150.27;100.00;61272.81;5238816;28;20126;-75
2022/09/09 11:19:34;;;;;;;9.27;1.90;;;;;;;-150.27;100.00;61272.81;5245905;28;20032;-85
2022/09/09 11:22:25;;;;;;;6.40;1.70;;;;;;;-150.27;100.00;61272.81;5246729;28;20022;-81
2022/09/09 11:25:19;;;;;;;6.70;2.03;;;;;;;-150.27;100.00;61272.81;5237722;28;20040;-75
2022/09/09 11:28:18;;;;;;;6.37;2.00;;;;;;;-150.27;100.00;61272.81;5242745;28;20025;-78
2022/09/09 11:31:07;;;;;;;8.03;2.33;;;;;;;-150.27;100.00;61272.81;5241600;28;20487;-76
2022/09/09 11:33:49;;;;;;;8.87;1.80;;;;;;;-150.27;100.00;61272.81;5245900;28;20037;-77
2022/09/09 11:36:44;;;;;;;6.80;2.07;;;;;;;-150.27;100.00;61272.81;5246127;28;20080;-77
2022/09/09 11:39:33;;;;;;;5.77;1.90;;;;;;;-150.27;100.00;61272.81;5252703;28;20073;-75
2022/09/09 11:42:13;;;;;;;9.83;1.83;;;;;;;-150.27;100.00;61272.81;5244101;28;20036;-75
2022/09/09 11:44:45;;;;;;;8.30;1.77;;;;;;;-150.27;100.00;61272.81;5247953;28;20029;-74
2022/09/09 11:47:31;;;;;;;7.40;1.87;;;;;;;-150.27;100.00;61272.81;5258341;28;20489;-84
2022/09/09 11:50:26;;;;;;;7.93;2.83;;;;;;;-150.27;100.00;61272.81;5257330;28;20111;-83
2022/09/09 11:53:13;;;;;;;6.53;1.40;;;;;;;-150.27;100.00;61272.81;5244549;28;20392;-87
2022/09/09 11:55:44;;;;;;;7.90;2.67;;;;;;;-150.27;100.00;61272.81;5236931;28;20369;-75